Terminal Aerodrome Forecast
Issued by NWS

Home | Current Version | Previous Version | Graphics & Text | Print | Product List | Glossary On
Versions: 1 2 3 4 5 6 7 8 9 10 11 12 13 14 15 16 17 18
000
FTUS42 KMHX 280214 AAA
TAFPGV
TAF AMD
KPGV 280214Z 2802/2824 VRB04KT P6SM BKN050
     FM280600 VRB02KT 3SM BR SCT007 BKN025
     FM280900 VRB02KT 2SM BR BKN005
     FM281300 17005KT P6SM BKN050
     FM281800 17006KT P6SM VCSH BKN050
      AMD LTD TO CLD VIS AND WIND=

USA.gov is the U.S. government's official web portal to all federal, state and local government web resources and services.